createdAt,value
2022-12-28T00:01:20.571Z,6.63
2022-12-28T00:03:48.388Z,4.50
2022-12-28T00:06:16.538Z,6.83
2022-12-28T00:08:45.724Z,4.30
2022-12-28T00:11:20.497Z,4.47
2022-12-28T00:13:56.263Z,4.00
2022-12-28T00:16:26.753Z,5.40
2022-12-28T00:18:54.949Z,3.57
2022-12-28T00:21:22.994Z,4.50
2022-12-28T00:23:53.263Z,6.03
2022-12-28T00:26:21.469Z,6.30
2022-12-28T00:28:49.647Z,4.10
2022-12-28T00:31:17.854Z,5.23
2022-12-28T00:33:45.775Z,5.30
2022-12-28T00:36:14.614Z,3.80
2022-12-28T00:38:42.565Z,7.57
2022-12-28T00:41:12.238Z,4.33
2022-12-28T00:43:39.998Z,3.97
2022-12-28T00:46:07.801Z,8.70
2022-12-28T00:48:35.583Z,3.73
2022-12-28T00:51:04.437Z,6.43
2022-12-28T00:53:32.191Z,3.40
2022-12-28T00:56:06.517Z,5.60
2022-12-28T00:58:35.780Z,3.73
2022-12-28T01:01:03.899Z,9.13
2022-12-28T01:03:31.936Z,3.00
2022-12-28T01:05:59.826Z,5.60
2022-12-28T01:08:27.754Z,3.13
2022-12-28T01:10:55.521Z,7.57
2022-12-28T01:13:23.728Z,9.37
2022-12-28T01:15:53.048Z,9.33
2022-12-28T01:18:21.200Z,3.30
2022-12-28T01:20:49.194Z,6.10
2022-12-28T01:23:17.254Z,2.80
2022-12-28T01:25:45.174Z,3.63
2022-12-28T01:28:13.104Z,3.97
2022-12-28T01:30:41.025Z,3.30
2022-12-28T01:33:10.580Z,3.30
2022-12-28T01:35:38.610Z,2.60
2022-12-28T01:38:06.606Z,2.53
2022-12-28T01:40:34.516Z,3.90
2022-12-28T01:43:02.317Z,4.50
2022-12-28T01:45:30.328Z,8.27
2022-12-28T01:47:58.092Z,7.90
2022-12-28T01:50:28.208Z,7.03
2022-12-28T01:52:57.664Z,5.03
2022-12-28T01:55:26.575Z,6.37
2022-12-28T01:57:56.247Z,8.33
2022-12-28T02:00:24.373Z,7.03
2022-12-28T02:02:54.562Z,6.90
2022-12-28T02:05:24.228Z,5.53
2022-12-28T02:07:56.155Z,8.37
2022-12-28T02:10:44.493Z,5.60
2022-12-28T02:13:12.266Z,6.13
2022-12-28T02:15:40.263Z,7.07
2022-12-28T02:18:08.748Z,5.50
2022-12-28T02:20:41.627Z,5.47
2022-12-28T02:23:26.117Z,7.30
2022-12-28T02:26:18.063Z,5.27
2022-12-28T02:29:10.076Z,5.10
2022-12-28T02:31:40.126Z,6.73
2022-12-28T02:34:12.470Z,5.93
2022-12-28T02:36:42.634Z,4.20
2022-12-28T02:39:11.471Z,9.03
2022-12-28T02:41:39.593Z,6.67
2022-12-28T02:44:09.146Z,5.00
2022-12-28T02:46:54.786Z,6.80
2022-12-28T02:49:41.385Z,7.57
2022-12-28T02:52:13.275Z,5.73
2022-12-28T02:55:15.912Z,4.73
2022-12-28T02:57:56.804Z,6.23
2022-12-28T03:00:27.153Z,7.20
2022-12-28T03:03:01.128Z,8.37
2022-12-28T03:05:52.415Z,6.27
2022-12-28T03:08:20.897Z,3.37
2022-12-28T03:10:52.344Z,5.10
2022-12-28T03:13:40.970Z,6.53
2022-12-28T03:16:13.739Z,5.07
2022-12-28T03:18:59.379Z,5.73
2022-12-28T03:21:45.549Z,9.47
2022-12-28T03:24:31.085Z,3.63
2022-12-28T03:27:16.534Z,4.97
2022-12-28T03:30:05.432Z,8.70
2022-12-28T03:32:35.303Z,4.33
2022-12-28T03:35:03.335Z,6.43
2022-12-28T03:37:33.781Z,2.90
2022-12-28T03:40:03.935Z,3.43
2022-12-28T03:42:51.416Z,5.00
2022-12-28T03:45:44.844Z,6.20
2022-12-28T03:48:10.551Z,4.80
2022-12-28T03:50:38.871Z,9.10
2022-12-28T03:53:07.031Z,3.33
2022-12-28T03:55:35.619Z,3.30
2022-12-28T03:58:03.734Z,5.50
2022-12-28T04:00:31.513Z,4.27
2022-12-28T04:02:59.298Z,3.37
2022-12-28T04:05:28.727Z,7.60
2022-12-28T04:07:56.421Z,6.80
2022-12-28T04:10:24.146Z,4.50
2022-12-28T04:12:55.783Z,6.10
2022-12-28T04:15:24.157Z,3.07
2022-12-28T04:17:51.934Z,2.97
2022-12-28T04:20:20.045Z,3.10
2022-12-28T04:22:49.096Z,3.40
2022-12-28T04:25:17.080Z,2.83
2022-12-28T04:27:45.070Z,3.90
2022-12-28T04:30:13.272Z,3.90
2022-12-28T04:32:41.158Z,5.40
2022-12-28T04:35:09.592Z,3.47
2022-12-28T04:37:37.660Z,4.93
2022-12-28T04:40:08.105Z,2.43
2022-12-28T04:42:36.019Z,4.17
2022-12-28T04:45:03.870Z,3.90
2022-12-28T04:47:31.986Z,4.23
2022-12-28T04:49:59.705Z,4.77
2022-12-28T04:52:27.651Z,3.20
2022-12-28T04:54:55.506Z,4.43
2022-12-28T04:57:24.558Z,4.90
2022-12-28T04:59:52.286Z,2.50
2022-12-28T05:02:20.111Z,6.10
2022-12-28T05:04:48.100Z,3.80
2022-12-28T05:07:15.966Z,2.77
2022-12-28T05:09:43.665Z,7.67
2022-12-28T05:12:11.366Z,4.00
2022-12-28T05:14:42.149Z,3.57
2022-12-28T05:17:10.069Z,3.73
2022-12-28T05:19:37.963Z,3.00
2022-12-28T05:22:05.632Z,4.10
2022-12-28T05:24:33.839Z,2.63
2022-12-28T05:27:01.580Z,2.80
2022-12-28T05:29:29.788Z,7.43
2022-12-28T05:31:58.823Z,2.50
2022-12-28T05:34:26.925Z,2.77
2022-12-28T05:36:54.845Z,2.50
2022-12-28T05:39:22.734Z,4.00
2022-12-28T05:41:50.640Z,3.83
2022-12-28T05:44:18.617Z,6.30
2022-12-28T05:46:46.787Z,2.93
2022-12-28T05:49:16.261Z,2.80
2022-12-28T05:51:44.294Z,3.03
2022-12-28T05:54:12.247Z,3.07
2022-12-28T05:56:41.998Z,2.43
2022-12-28T05:59:09.959Z,2.90
2022-12-28T06:01:39.709Z,6.40
2022-12-28T06:04:08.620Z,3.30
2022-12-28T06:06:38.275Z,2.93
2022-12-28T06:09:06.158Z,2.10
2022-12-28T06:11:34.354Z,2.10
2022-12-28T06:14:03.769Z,4.43
2022-12-28T06:16:32.645Z,2.43
2022-12-28T06:19:00.561Z,5.40
2022-12-28T06:21:31.073Z,3.23
2022-12-28T06:24:00.911Z,2.20
2022-12-28T06:26:29.451Z,2.13
2022-12-28T06:28:57.587Z,2.20
2022-12-28T06:31:26.651Z,2.40
2022-12-28T06:33:57.475Z,4.03
2022-12-28T06:36:26.544Z,2.50
2022-12-28T06:38:55.778Z,2.53
2022-12-28T06:41:25.179Z,2.30
2022-12-28T06:43:53.465Z,2.40
2022-12-28T06:46:22.046Z,2.13
2022-12-28T06:48:50.869Z,1.90
2022-12-28T06:51:19.565Z,3.27
2022-12-28T06:53:48.160Z,2.40
2022-12-28T06:56:16.877Z,2.33
2022-12-28T06:58:46.726Z,3.07
2022-12-28T07:01:15.384Z,1.80
2022-12-28T07:03:43.392Z,2.10
2022-12-28T07:06:11.472Z,2.60
2022-12-28T07:08:39.248Z,3.10
2022-12-28T07:11:08.584Z,4.10
2022-12-28T07:13:36.613Z,1.80
2022-12-28T07:16:07.662Z,1.90
2022-12-28T07:18:35.665Z,2.30
2022-12-28T07:21:04.650Z,1.80
2022-12-28T07:23:32.351Z,2.00
2022-12-28T07:26:04.756Z,1.80
2022-12-28T07:28:32.464Z,1.80
2022-12-28T07:31:00.220Z,1.70
2022-12-28T07:33:29.917Z,1.80
2022-12-28T07:35:59.252Z,1.50
2022-12-28T07:38:26.969Z,1.63
2022-12-28T07:40:54.942Z,2.30
2022-12-28T07:43:22.902Z,1.63
2022-12-28T07:45:50.991Z,1.90
2022-12-28T07:48:18.954Z,2.00
2022-12-28T07:50:48.340Z,1.93
2022-12-28T07:53:21.916Z,1.73
2022-12-28T07:55:56.277Z,1.37
2022-12-28T07:58:24.399Z,2.10
2022-12-28T08:00:52.380Z,2.37
2022-12-28T08:03:20.499Z,2.00
2022-12-28T08:05:49.916Z,1.80
2022-12-28T08:08:18.128Z,1.90
2022-12-28T08:10:46.229Z,2.40
2022-12-28T08:13:13.986Z,1.70
2022-12-28T08:15:42.282Z,1.97
2022-12-28T08:18:10.033Z,1.93
2022-12-28T08:20:39.981Z,1.77
2022-12-28T08:23:09.423Z,1.80
2022-12-28T08:25:37.857Z,1.43
2022-12-28T08:28:05.870Z,1.63
2022-12-28T08:30:34.424Z,1.80
2022-12-28T08:33:02.206Z,1.80
2022-12-28T08:35:29.965Z,1.60
2022-12-28T08:37:58.219Z,1.87
2022-12-28T08:40:29.919Z,3.17
2022-12-28T08:42:59.521Z,2.07
2022-12-28T08:45:27.493Z,2.00
2022-12-28T08:47:55.851Z,2.00
2022-12-28T08:50:29.553Z,1.93
2022-12-28T08:52:59.285Z,2.00
2022-12-28T08:55:28.597Z,1.93
2022-12-28T08:57:56.778Z,1.90
2022-12-28T09:00:24.716Z,1.57
2022-12-28T09:02:52.702Z,2.20
2022-12-28T09:05:20.597Z,1.80
2022-12-28T09:07:48.899Z,1.90
2022-12-28T09:10:16.934Z,2.00
2022-12-28T09:12:46.306Z,1.83
2022-12-28T09:15:14.238Z,2.20
2022-12-28T09:17:42.734Z,2.10
2022-12-28T09:20:11.962Z,2.40
2022-12-28T09:22:40.233Z,2.77
2022-12-28T09:25:08.596Z,2.20
2022-12-28T09:27:36.585Z,2.10
2022-12-28T09:30:06.966Z,1.77
2022-12-28T09:32:34.815Z,2.10
2022-12-28T09:35:02.593Z,1.90
2022-12-28T09:37:30.341Z,2.40
2022-12-28T09:40:01.537Z,1.50
2022-12-28T09:42:29.757Z,1.63
2022-12-28T09:45:02.716Z,1.67
2022-12-28T09:47:35.247Z,1.90
2022-12-28T09:50:25.031Z,1.57
2022-12-28T09:52:57.266Z,1.80
2022-12-28T09:55:25.587Z,1.97
2022-12-28T09:57:55.261Z,1.97
2022-12-28T10:00:24.744Z,2.00
2022-12-28T10:02:56.368Z,2.00
2022-12-28T10:05:24.637Z,2.50
2022-12-28T10:07:52.895Z,1.70
2022-12-28T10:10:22.122Z,1.73
2022-12-28T10:12:50.121Z,1.93
2022-12-28T10:15:18.119Z,2.00
2022-12-28T10:17:45.941Z,1.80
2022-12-28T10:20:19.609Z,1.80
2022-12-28T10:22:50.354Z,2.03
2022-12-28T10:25:19.287Z,2.83
2022-12-28T10:27:47.152Z,1.90
2022-12-28T10:30:19.377Z,1.97
2022-12-28T10:32:53.720Z,1.83
2022-12-28T10:35:26.215Z,2.17
2022-12-28T10:38:01.307Z,1.87
2022-12-28T10:40:30.217Z,1.70
2022-12-28T10:42:58.625Z,1.77
2022-12-28T10:45:28.465Z,2.80
2022-12-28T10:47:56.900Z,1.97
2022-12-28T10:50:56.662Z,2.17
2022-12-28T10:53:29.564Z,1.73
2022-12-28T10:56:08.962Z,2.07
2022-12-28T10:58:36.652Z,1.80
2022-12-28T11:01:07.320Z,1.80
2022-12-28T11:03:36.769Z,1.97
2022-12-28T11:06:18.836Z,1.60
2022-12-28T11:09:01.807Z,1.80
2022-12-28T11:11:29.531Z,2.00
2022-12-28T11:14:03.476Z,1.93
2022-12-28T11:16:32.512Z,1.70
2022-12-28T11:19:00.306Z,2.10
2022-12-28T11:21:30.221Z,1.93
2022-12-28T11:23:58.118Z,2.00
2022-12-28T11:26:26.099Z,1.80
2022-12-28T11:28:54.310Z,1.73
2022-12-28T11:31:25.135Z,1.93
2022-12-28T11:33:54.544Z,1.70
2022-12-28T11:36:23.803Z,1.80
2022-12-28T11:38:54.168Z,1.77
2022-12-28T11:42:27.656Z,1.93
2022-12-28T11:44:51.357Z,2.07
2022-12-28T11:47:32.877Z,2.07
2022-12-28T11:50:39.330Z,1.80
2022-12-28T11:53:23.113Z,1.60
2022-12-28T11:56:06.078Z,1.50
2022-12-28T11:59:16.125Z,1.63
2022-12-28T12:01:45.212Z,1.80
2022-12-28T12:04:30.576Z,1.70
2022-12-28T12:07:08.630Z,2.10
2022-12-28T12:09:44.124Z,2.03
2022-12-28T12:12:38.649Z,1.90
2022-12-28T12:15:17.365Z,1.87
2022-12-28T12:17:46.341Z,1.83
2022-12-28T12:20:22.483Z,1.67
2022-12-28T12:22:52.206Z,1.80
2022-12-28T12:25:23.150Z,1.40
2022-12-28T12:27:56.041Z,1.80
2022-12-28T12:30:26.177Z,1.93
2022-12-28T12:33:02.269Z,2.13
2022-12-28T12:36:08.937Z,2.00
2022-12-28T12:38:59.746Z,2.10
2022-12-28T12:44:52.517Z,2.27
2022-12-28T12:47:39.869Z,4.67
2022-12-28T12:50:30.873Z,2.20
2022-12-28T12:53:08.802Z,2.63
2022-12-28T13:04:00.015Z,2.23
2022-12-28T13:06:32.560Z,2.43
2022-12-28T13:09:19.543Z,2.73
2022-12-28T13:12:00.112Z,2.90
2022-12-28T13:14:28.179Z,2.50
2022-12-28T13:16:59.538Z,2.60
2022-12-28T13:19:28.556Z,2.50
2022-12-28T13:21:57.363Z,2.77
2022-12-28T13:24:27.443Z,2.67
2022-12-28T13:27:02.630Z,3.33
2022-12-28T13:29:41.895Z,2.50
2022-12-28T14:07:13.384Z,3.27
2022-12-28T14:09:41.490Z,2.23
2022-12-28T14:12:09.325Z,2.00
2022-12-28T14:14:37.378Z,2.50
2022-12-28T14:17:05.345Z,2.00
2022-12-28T14:19:33.106Z,1.83
2022-12-28T14:22:00.953Z,2.17
2022-12-28T14:24:30.069Z,2.17
2022-12-28T14:26:58.778Z,2.33
2022-12-28T14:29:29.343Z,1.70
2022-12-28T14:31:57.847Z,2.07
2022-12-28T14:34:28.122Z,2.07
2022-12-28T14:36:56.349Z,1.53
2022-12-28T14:39:27.609Z,2.00
2022-12-28T14:41:57.023Z,2.50
2022-12-28T14:44:28.626Z,1.90
2022-12-28T14:46:56.732Z,1.70
2022-12-28T14:49:36.210Z,2.67
2022-12-28T14:52:39.019Z,1.90
2022-12-28T14:55:24.059Z,2.03
2022-12-28T14:57:54.306Z,1.90
2022-12-28T15:00:24.350Z,2.40
2022-12-28T15:02:52.249Z,1.97
2022-12-28T15:05:37.782Z,2.90
2022-12-28T15:08:05.808Z,1.50
2022-12-28T15:10:33.765Z,1.70
2022-12-28T15:13:02.827Z,1.70
2022-12-28T15:15:30.531Z,1.80
2022-12-28T15:17:58.260Z,2.20
2022-12-28T15:20:25.988Z,1.77
2022-12-28T15:22:53.914Z,1.80
2022-12-28T15:25:21.839Z,2.30
2022-12-28T15:27:52.897Z,1.90
2022-12-28T15:30:27.375Z,1.90
2022-12-28T15:32:56.962Z,2.40
2022-12-28T15:35:24.798Z,1.67
2022-12-28T15:37:52.499Z,1.97
2022-12-28T15:40:22.030Z,2.13
2022-12-28T15:42:49.723Z,1.53
2022-12-28T15:45:17.589Z,1.73
2022-12-28T15:47:46.611Z,2.70
2022-12-28T15:50:14.302Z,2.97
2022-12-28T15:52:41.997Z,2.20
2022-12-28T15:55:10.269Z,5.10
2022-12-28T15:57:38.032Z,2.17
2022-12-28T16:00:06.904Z,2.03
2022-12-28T16:02:35.043Z,2.07
2022-12-28T16:05:04.945Z,2.33
2022-12-28T16:07:32.837Z,2.00
2022-12-28T16:10:00.834Z,2.20
2022-12-28T16:12:28.726Z,2.00
2022-12-28T16:14:56.671Z,1.90
2022-12-28T16:17:24.484Z,3.10
2022-12-28T16:19:52.583Z,1.73
2022-12-28T16:22:21.663Z,3.00
2022-12-28T16:24:49.580Z,2.00
2022-12-28T16:27:17.359Z,2.03
2022-12-28T16:29:52.729Z,1.93
2022-12-28T16:32:23.213Z,2.07
2022-12-28T16:34:50.979Z,3.63
2022-12-28T16:37:18.661Z,1.90
2022-12-28T16:39:47.826Z,2.27
2022-12-28T16:42:15.773Z,2.87
2022-12-28T16:44:45.993Z,2.13
2022-12-28T16:47:13.898Z,2.50
2022-12-28T16:49:42.071Z,2.23
2022-12-28T16:52:10.173Z,2.17
2022-12-28T16:54:38.129Z,2.10
2022-12-28T16:57:07.926Z,2.70
2022-12-28T16:59:35.919Z,1.97
2022-12-28T17:02:05.490Z,1.77
2022-12-28T17:04:33.484Z,2.07
2022-12-28T17:07:01.569Z,7.27
2022-12-28T17:09:29.483Z,2.23
2022-12-28T17:11:57.529Z,2.00
2022-12-28T17:14:37.368Z,2.90
2022-12-28T17:17:06.542Z,4.20
2022-12-28T17:19:34.639Z,2.87
2022-12-28T17:22:02.609Z,3.27
2022-12-28T17:24:30.721Z,2.20
2022-12-28T17:27:03.641Z,4.20
2022-12-28T17:29:37.140Z,2.23
2022-12-28T17:32:05.463Z,2.20
2022-12-28T17:34:33.862Z,2.73
2022-12-28T17:37:01.877Z,2.00
2022-12-28T17:39:32.085Z,5.50
2022-12-28T17:42:04.367Z,2.73
2022-12-28T17:44:32.986Z,2.20
2022-12-28T17:47:02.127Z,3.70
2022-12-28T17:49:29.918Z,4.60
2022-12-28T17:51:57.856Z,2.97
2022-12-28T17:54:25.808Z,2.40
2022-12-28T17:56:54.221Z,2.70
2022-12-28T17:59:22.185Z,2.93
2022-12-28T18:01:50.023Z,5.17
2022-12-28T18:04:19.348Z,3.47
2022-12-28T18:06:47.302Z,2.60
2022-12-28T18:09:15.069Z,2.70
2022-12-28T18:11:43.014Z,3.07
2022-12-28T18:14:12.930Z,2.77
2022-12-28T18:16:41.205Z,2.80
2022-12-28T18:19:08.990Z,2.80
2022-12-28T18:21:38.100Z,4.63
2022-12-28T18:24:06.799Z,2.70
2022-12-28T18:26:34.738Z,3.83
2022-12-28T18:29:03.012Z,4.67
2022-12-28T18:31:31.123Z,5.73
2022-12-28T18:34:01.819Z,4.93
2022-12-28T18:36:29.748Z,2.93
2022-12-28T18:38:58.881Z,4.33
2022-12-28T18:41:32.067Z,5.43
2022-12-28T18:44:02.761Z,5.23
2022-12-28T18:46:30.893Z,4.27
2022-12-28T18:49:00.480Z,5.80
2022-12-28T18:51:28.277Z,2.43
2022-12-28T18:53:56.038Z,4.57
2022-12-28T18:56:25.253Z,3.53
2022-12-28T18:58:54.023Z,4.07
2022-12-28T19:02:04.673Z,2.50
2022-12-28T19:04:11.947Z,3.53
2022-12-28T19:06:40.222Z,4.47
2022-12-28T19:09:08.854Z,3.40
2022-12-28T19:11:38.487Z,5.20
2022-12-28T19:14:06.553Z,5.80
2022-12-28T19:16:34.370Z,2.57
2022-12-28T19:19:02.172Z,2.83
2022-12-28T19:21:31.436Z,5.77
2022-12-28T19:23:59.843Z,3.80
2022-12-28T19:26:27.632Z,6.63
2022-12-28T19:28:58.036Z,3.30
2022-12-28T19:31:25.865Z,3.83
2022-12-28T19:33:53.824Z,4.73
2022-12-28T19:36:21.597Z,2.83
2022-12-28T19:38:49.718Z,4.00
2022-12-28T19:41:17.722Z,3.53
2022-12-28T19:43:45.881Z,6.10
2022-12-28T19:46:16.106Z,2.70
2022-12-28T19:48:44.113Z,2.83
2022-12-28T19:51:13.113Z,3.17
2022-12-28T19:53:41.106Z,6.20
2022-12-28T19:56:10.047Z,2.80
2022-12-28T19:58:39.681Z,3.67
2022-12-28T20:01:08.070Z,4.40
2022-12-28T20:03:37.615Z,3.10
2022-12-28T20:06:09.144Z,3.10
2022-12-28T20:08:37.125Z,2.97
2022-12-28T20:11:05.236Z,3.10
2022-12-28T20:13:33.221Z,4.73
2022-12-28T20:16:01.831Z,5.20
2022-12-28T20:18:29.904Z,7.20
2022-12-28T20:21:21.479Z,9.30
2022-12-28T20:23:49.830Z,13.13
2022-12-28T20:26:18.320Z,10.47
2022-12-28T20:28:46.339Z,10.97
2022-12-28T20:31:15.015Z,8.37
2022-12-28T20:33:43.091Z,9.03
2022-12-28T20:36:13.937Z,10.87
2022-12-28T20:38:41.799Z,9.10
2022-12-28T20:41:10.662Z,9.83
2022-12-28T20:43:37.528Z,9.97
2022-12-28T20:46:11.847Z,8.80
2022-12-28T20:48:39.921Z,11.27
2022-12-28T20:51:07.780Z,39.87
2022-12-28T20:53:37.296Z,23.53
2022-12-28T20:56:08.456Z,22.80
2022-12-28T20:58:36.314Z,25.27
2022-12-28T21:01:05.005Z,23.73
2022-12-28T21:03:32.943Z,21.97
2022-12-28T21:06:00.882Z,20.53
2022-12-28T21:08:31.040Z,22.00
2022-12-28T21:11:00.955Z,20.87
2022-12-28T21:13:29.120Z,19.63
2022-12-28T21:15:57.275Z,19.53
2022-12-28T21:18:28.659Z,19.27
2022-12-28T21:20:57.936Z,16.33
2022-12-28T21:23:25.937Z,16.93
2022-12-28T21:25:53.998Z,19.93
2022-12-28T21:28:23.616Z,18.07
2022-12-28T21:30:54.797Z,15.90
2022-12-28T21:33:22.862Z,16.80
2022-12-28T21:36:00.809Z,15.40
2022-12-28T21:38:29.132Z,17.87
2022-12-28T21:41:02.801Z,18.07
2022-12-28T21:43:32.533Z,16.77
2022-12-28T21:46:02.596Z,16.43
2022-12-28T21:48:31.968Z,15.07
2022-12-28T21:51:05.569Z,14.47
2022-12-28T21:53:33.665Z,18.07
2022-12-28T21:56:01.802Z,15.03
2022-12-28T21:58:33.122Z,14.00
2022-12-28T22:01:18.985Z,18.03
2022-12-28T22:04:04.796Z,22.50
2022-12-28T22:06:35.881Z,16.13
2022-12-28T22:09:21.406Z,17.13
2022-12-28T22:12:06.935Z,17.53
2022-12-28T22:15:14.474Z,13.87
2022-12-28T22:17:42.846Z,17.30
2022-12-28T22:20:17.095Z,14.30
2022-12-28T22:22:45.147Z,14.43
2022-12-28T22:25:13.295Z,14.57
2022-12-28T22:27:42.302Z,15.87
2022-12-28T22:30:13.126Z,15.17
2022-12-28T22:32:41.179Z,14.00
2022-12-28T22:35:10.129Z,13.50
2022-12-28T22:38:37.815Z,14.23
2022-12-28T22:41:14.876Z,13.53
2022-12-28T22:43:42.840Z,13.97
2022-12-28T22:46:12.799Z,13.23
2022-12-28T22:48:40.894Z,10.63
2022-12-28T22:51:10.142Z,12.07
2022-12-28T22:53:38.224Z,11.23
2022-12-28T22:56:08.122Z,16.60
2022-12-28T22:58:36.369Z,10.43
2022-12-28T23:01:06.424Z,12.63
2022-12-28T23:03:36.211Z,12.50
2022-12-28T23:06:04.420Z,11.60
2022-12-28T23:08:32.390Z,9.90
2022-12-28T23:11:01.109Z,11.43
2022-12-28T23:13:29.232Z,12.00
2022-12-28T23:15:57.478Z,11.30
2022-12-28T23:18:39.426Z,9.13
2022-12-28T23:21:30.266Z,24.63
2022-12-28T23:24:15.819Z,30.97
2022-12-28T23:27:00.949Z,48.73
2022-12-28T23:29:30.826Z,51.90
2022-12-28T23:31:58.842Z,47.63
2022-12-28T23:34:26.750Z,47.47
2022-12-28T23:36:56.217Z,46.10
2022-12-28T23:39:24.500Z,46.57
2022-12-28T23:41:52.449Z,45.80
2022-12-28T23:44:21.244Z,40.40
2022-12-28T23:46:53.843Z,41.43
2022-12-28T23:49:25.256Z,39.27
2022-12-28T23:51:53.116Z,44.47
2022-12-28T23:54:22.630Z,37.23
2022-12-28T23:56:50.380Z,34.73
2022-12-28T23:59:18.620Z,34.20
